createdAt,value
2019-05-02T07:43:06.017Z,20.69
2019-05-02T07:44:05.952Z,20.65
2019-05-02T07:45:09.435Z,20.66
2019-05-02T07:46:05.913Z,20.74
2019-05-02T07:47:05.921Z,20.62
2019-05-02T07:48:05.968Z,20.68
2019-05-02T07:49:05.885Z,20.65
2019-05-02T07:50:10.373Z,20.76
2019-05-02T07:51:05.927Z,20.64
2019-05-02T07:52:05.858Z,20.65
2019-05-02T07:53:30.712Z,20.74
2019-05-02T07:54:30.481Z,20.79
2019-05-02T07:55:30.899Z,20.77
2019-05-02T07:56:30.419Z,20.80
2019-05-02T07:57:37.868Z,20.79
2019-05-02T07:58:38.423Z,20.76
2019-05-02T07:59:38.800Z,20.79
2019-05-02T08:00:38.493Z,20.76
2019-05-02T08:01:37.803Z,20.83
2019-05-02T08:02:37.790Z,20.81
2019-05-02T08:03:37.801Z,20.84
2019-05-02T08:04:37.753Z,20.87
2019-05-02T08:05:37.752Z,20.86
2019-05-02T08:06:40.129Z,20.80
2019-05-02T08:07:38.954Z,20.81
2019-05-02T08:08:38.451Z,20.79
2019-05-02T08:09:39.141Z,20.83
2019-05-02T08:10:38.681Z,20.91
2019-05-02T08:11:38.555Z,20.81
2019-05-02T08:12:37.757Z,20.95
2019-05-02T08:13:37.685Z,20.91
2019-05-02T08:14:37.634Z,20.91
2019-05-02T08:15:37.733Z,20.98
2019-05-02T08:16:37.775Z,20.95
2019-05-02T08:17:37.613Z,20.89
2019-05-02T08:18:37.607Z,21.01
2019-05-02T08:19:41.620Z,20.93
2019-05-02T08:20:39.000Z,20.99
2019-05-02T08:21:37.563Z,21.01
2019-05-02T08:22:37.552Z,20.96
2019-05-02T08:23:37.542Z,20.96
2019-05-02T08:24:38.244Z,21.01
2019-05-02T08:25:41.458Z,21.09
2019-05-02T08:26:38.549Z,21.04
2019-05-02T08:27:44.472Z,21.02
2019-05-02T08:28:37.508Z,21.09
2019-05-02T08:29:37.467Z,21.06
2019-05-02T08:30:40.435Z,21.05
2019-05-02T08:31:37.445Z,21.11
2019-05-02T08:32:37.462Z,21.05
2019-05-02T08:33:37.421Z,21.13
2019-05-02T08:34:37.580Z,21.11
2019-05-02T08:35:39.264Z,21.11
2019-05-02T08:36:37.395Z,21.08
2019-05-02T08:37:41.089Z,21.13
2019-05-02T08:38:38.403Z,21.11
2019-05-02T08:39:37.362Z,21.04
2019-05-02T08:40:37.346Z,21.09
2019-05-02T08:41:37.391Z,21.17
2019-05-02T08:42:37.334Z,21.09
2019-05-02T08:43:40.312Z,21.04
2019-05-02T08:44:50.337Z,21.05
2019-05-02T08:45:39.554Z,21.05
2019-05-02T08:46:37.280Z,21.04
2019-05-02T08:47:37.263Z,21.04
2019-05-02T08:48:41.741Z,20.99
2019-05-02T08:49:38.254Z,21.01
2019-05-02T08:50:37.239Z,21.05
2019-05-02T08:51:37.234Z,20.98
2019-05-02T08:52:42.231Z,21.04
2019-05-02T08:53:38.255Z,20.96
2019-05-02T08:54:38.125Z,20.98
2019-05-02T08:55:41.357Z,20.96
2019-05-02T08:56:38.164Z,21.02
2019-05-02T08:57:37.152Z,20.95
2019-05-02T08:58:49.762Z,20.95
2019-05-02T08:59:37.129Z,20.90
2019-05-02T09:00:39.300Z,20.98
2019-05-02T09:01:37.106Z,20.98
2019-05-02T09:02:41.468Z,21.06
2019-05-02T09:46:24.540Z,20.83
2019-05-02T09:47:27.337Z,20.89
2019-05-02T09:48:26.875Z,20.84
2019-05-02T09:49:24.341Z,20.93
2019-05-02T09:50:29.661Z,20.90
2019-05-02T09:51:25.224Z,20.84
2019-05-02T09:52:24.163Z,21.02
2019-05-02T09:53:25.509Z,20.93
2019-05-02T09:54:24.001Z,21.08
2019-05-02T09:55:23.922Z,21.08
2019-05-02T09:56:23.862Z,21.09
2019-05-02T09:57:39.287Z,21.19
2019-05-02T09:58:39.271Z,21.19
2019-05-02T09:59:43.470Z,21.16
2019-05-02T10:00:41.814Z,21.19
2019-05-02T10:01:39.270Z,21.24
2019-05-02T10:02:39.246Z,21.30
2019-05-02T10:03:39.940Z,21.30
